createdAt,value
2017-12-09T00:01:16.558Z,5.70
2017-12-09T00:03:44.154Z,5.30
2017-12-09T00:06:11.691Z,4.70
2017-12-09T00:08:39.230Z,5.27
2017-12-09T00:11:06.783Z,4.90
2017-12-09T00:13:34.320Z,5.10
2017-12-09T00:16:02.611Z,4.67
2017-12-09T00:18:30.403Z,5.68
2017-12-09T00:20:57.955Z,3.90
2017-12-09T00:23:25.485Z,5.43
2017-12-09T00:25:53.800Z,5.60
2017-12-09T00:28:21.370Z,6.03
2017-12-09T00:30:49.383Z,5.20
2017-12-09T00:33:18.450Z,5.70
2017-12-09T00:35:46.127Z,5.93
2017-12-09T00:38:15.499Z,5.78
2017-12-09T00:40:43.089Z,6.30
2017-12-09T00:43:10.615Z,5.70
2017-12-09T00:45:38.249Z,6.20
2017-12-09T00:48:05.920Z,5.50
2017-12-09T00:50:33.478Z,5.30
2017-12-09T00:53:01.016Z,6.00
2017-12-09T00:55:28.625Z,6.10
2017-12-09T00:57:57.659Z,6.23
2017-12-09T01:00:25.195Z,6.80
2017-12-09T01:02:52.786Z,6.73
2017-12-09T01:05:20.312Z,6.68
2017-12-09T01:07:47.843Z,6.87
2017-12-09T01:10:17.331Z,7.35
2017-12-09T01:12:44.864Z,6.87
2017-12-09T01:18:19.815Z,6.97
2017-12-09T01:20:47.408Z,7.07
2017-12-09T01:23:16.396Z,7.87
2017-12-09T01:25:43.934Z,7.20
2017-12-09T01:28:11.497Z,7.68
2017-12-09T01:30:39.027Z,7.63
2017-12-09T01:33:07.608Z,7.72
2017-12-09T01:35:35.165Z,7.33
2017-12-09T01:38:03.456Z,7.10
2017-12-09T01:40:30.986Z,8.13
2017-12-09T01:42:58.571Z,7.97
2017-12-09T01:45:26.120Z,7.83
2017-12-09T01:47:53.655Z,7.57
2017-12-09T01:50:21.211Z,8.90
2017-12-09T01:52:48.739Z,8.20
2017-12-09T01:55:16.449Z,7.72
2017-12-09T01:57:44.779Z,9.23
2017-12-09T02:00:12.307Z,7.73
2017-12-09T02:02:39.836Z,8.60
2017-12-09T02:05:07.418Z,7.80
2017-12-09T02:07:34.999Z,8.47
2017-12-09T02:10:02.532Z,9.10
2017-12-09T02:12:30.083Z,9.23
2017-12-09T02:14:58.375Z,8.27
2017-12-09T02:17:25.967Z,9.00
2017-12-09T02:19:53.531Z,8.60
2017-12-09T02:22:21.066Z,8.43
2017-12-09T02:24:48.619Z,8.70
2017-12-09T02:27:16.814Z,8.25
2017-12-09T02:29:44.575Z,8.30
2017-12-09T02:32:12.107Z,10.27
2017-12-09T02:34:40.190Z,7.97
2017-12-09T02:37:07.724Z,8.90
2017-12-09T02:39:36.020Z,8.57
2017-12-09T02:42:03.577Z,9.20
2017-12-09T02:44:31.115Z,8.00
2017-12-09T02:46:59.413Z,8.30
2017-12-09T02:49:27.816Z,7.37
2017-12-09T02:51:55.408Z,7.97
2017-12-09T02:54:22.976Z,7.73
2017-12-09T02:56:51.300Z,7.70
2017-12-09T02:59:18.875Z,9.10
2017-12-09T03:01:46.407Z,7.90
2017-12-09T03:04:16.483Z,7.65
2017-12-09T03:06:44.031Z,7.83
2017-12-09T03:09:11.564Z,8.43
2017-12-09T03:11:39.232Z,8.30
2017-12-09T03:14:06.762Z,7.70
2017-12-09T03:16:34.295Z,8.00
2017-12-09T03:19:02.003Z,8.00
2017-12-09T03:21:29.542Z,7.60
2017-12-09T03:23:57.125Z,8.70
2017-12-09T03:26:24.696Z,7.03
2017-12-09T03:28:52.228Z,7.77
2017-12-09T03:31:19.772Z,6.85
2017-12-09T03:33:47.352Z,7.10
2017-12-09T03:36:17.879Z,7.20
2017-12-09T03:38:45.407Z,7.00
2017-12-09T03:41:15.591Z,6.57
2017-12-09T03:43:43.884Z,6.50
2017-12-09T03:46:11.415Z,4.57
2017-12-09T03:48:38.968Z,5.03
2017-12-09T03:51:06.491Z,5.62
2017-12-09T03:53:34.016Z,5.37
2017-12-09T03:56:02.365Z,5.43
2017-12-09T03:58:29.893Z,5.50
2017-12-09T04:00:57.423Z,6.20
2017-12-09T04:03:25.006Z,6.17
2017-12-09T04:05:52.534Z,5.40
2017-12-09T04:08:20.851Z,5.46
2017-12-09T04:10:48.412Z,5.60
2017-12-09T04:13:16.401Z,6.17
2017-12-09T04:15:43.962Z,7.10
2017-12-09T04:18:11.544Z,6.40
2017-12-09T04:20:39.067Z,6.80
2017-12-09T04:23:06.603Z,5.90
2017-12-09T04:25:34.199Z,5.97
2017-12-09T04:28:01.725Z,5.67
2017-12-09T04:30:29.295Z,5.90
2017-12-09T04:32:56.847Z,6.30
2017-12-09T04:35:24.600Z,6.40
2017-12-09T04:37:52.444Z,6.67
2017-12-09T04:40:20.027Z,6.78
2017-12-09T04:42:47.594Z,6.50
2017-12-09T04:45:15.596Z,6.47
2017-12-09T04:47:43.210Z,6.93
2017-12-09T04:50:10.751Z,6.20
2017-12-09T04:52:38.279Z,6.00
2017-12-09T04:55:05.864Z,6.40
2017-12-09T04:57:33.391Z,4.50
2017-12-09T05:00:00.928Z,6.20
2017-12-09T05:02:28.508Z,5.60
2017-12-09T05:04:56.035Z,5.60
2017-12-09T05:07:23.569Z,5.67
2017-12-09T05:09:51.132Z,5.53
2017-12-09T05:12:18.665Z,4.60
2017-12-09T05:14:46.355Z,4.50
2017-12-09T05:17:16.299Z,5.70
2017-12-09T05:19:43.827Z,5.10
2017-12-09T05:22:11.359Z,5.37
2017-12-09T05:24:38.945Z,5.20
2017-12-09T05:27:06.485Z,7.45
2017-12-09T05:29:34.816Z,5.27
2017-12-09T05:32:02.371Z,7.33
2017-12-09T05:34:29.895Z,5.00
2017-12-09T05:36:57.427Z,6.50
2017-12-09T05:39:25.541Z,5.33
2017-12-09T05:41:53.222Z,5.67
2017-12-09T05:44:20.748Z,5.32
2017-12-09T05:46:48.344Z,5.13
2017-12-09T05:49:16.415Z,5.93
2017-12-09T05:51:43.935Z,5.30
2017-12-09T05:54:11.497Z,4.82
2017-12-09T05:56:39.036Z,6.17
2017-12-09T05:59:07.343Z,5.35
2017-12-09T06:01:35.032Z,6.40
2017-12-09T06:04:02.712Z,5.33
2017-12-09T06:06:31.761Z,5.93
2017-12-09T06:08:59.339Z,5.63
2017-12-09T06:11:27.036Z,6.43
2017-12-09T06:13:54.555Z,5.53
2017-12-09T06:16:22.473Z,6.25
2017-12-09T06:18:50.067Z,5.33
2017-12-09T06:21:17.607Z,5.03
2017-12-09T06:23:45.235Z,6.07
2017-12-09T06:26:14.590Z,4.90
2017-12-09T06:28:42.152Z,4.73
2017-12-09T06:31:09.740Z,5.60
2017-12-09T06:33:37.263Z,5.20
2017-12-09T06:36:05.238Z,5.20
2017-12-09T06:38:32.898Z,5.62
2017-12-09T06:41:00.759Z,5.93
2017-12-09T06:43:28.282Z,6.20
2017-12-09T06:45:56.615Z,5.90
2017-12-09T06:48:24.190Z,7.03
2017-12-09T06:50:51.932Z,5.73
2017-12-09T06:53:19.690Z,7.18
2017-12-09T06:55:47.275Z,7.37
2017-12-09T06:58:16.473Z,6.65
2017-12-09T07:00:44.033Z,5.40
2017-12-09T07:03:11.573Z,5.40
2017-12-09T07:05:39.101Z,6.60
2017-12-09T07:08:06.664Z,6.10
2017-12-09T07:10:34.243Z,6.40
2017-12-09T07:13:01.993Z,5.93
2017-12-09T07:15:30.193Z,6.27
2017-12-09T07:17:57.932Z,7.10
2017-12-09T07:20:26.187Z,5.45
2017-12-09T07:22:53.764Z,6.40
2017-12-09T07:25:21.367Z,5.90
2017-12-09T07:27:49.208Z,6.63
2017-12-09T07:30:16.755Z,5.93
2017-12-09T07:32:44.307Z,6.37
2017-12-09T07:35:12.707Z,7.07
2017-12-09T07:37:40.291Z,7.10
2017-12-09T07:40:07.879Z,5.87
2017-12-09T07:42:36.181Z,7.53
2017-12-09T07:45:03.743Z,5.53
2017-12-09T07:47:31.271Z,5.87
2017-12-09T07:49:58.812Z,6.50
2017-12-09T07:52:27.196Z,6.73
2017-12-09T07:54:54.852Z,8.17
2017-12-09T07:57:22.383Z,7.07
2017-12-09T07:59:49.968Z,5.43
2017-12-09T08:02:17.495Z,6.90
2017-12-09T08:04:45.252Z,6.37
2017-12-09T08:07:13.821Z,6.10
2017-12-09T08:09:41.613Z,6.50
2017-12-09T08:12:09.349Z,7.40
2017-12-09T08:14:37.161Z,5.47
2017-12-09T08:17:04.911Z,6.47
2017-12-09T08:19:32.451Z,6.03
2017-12-09T08:22:00.400Z,8.50
2017-12-09T08:24:28.057Z,7.67
2017-12-09T08:26:55.652Z,7.60
2017-12-09T08:29:23.203Z,6.77
2017-12-09T08:31:50.873Z,7.17
2017-12-09T08:34:18.708Z,6.73
2017-12-09T08:36:46.340Z,8.03
2017-12-09T08:39:16.519Z,7.70
2017-12-09T08:41:44.052Z,6.93
2017-12-09T08:44:12.033Z,5.73
2017-12-09T08:46:39.724Z,7.40
2017-12-09T08:49:07.340Z,6.90
2017-12-09T08:51:34.937Z,6.20
2017-12-09T08:54:02.476Z,6.93
2017-12-09T08:56:30.004Z,6.90
2017-12-09T08:58:57.639Z,6.50
2017-12-09T09:01:25.177Z,6.72
2017-12-09T09:03:52.713Z,6.87
2017-12-09T09:06:20.307Z,6.18
2017-12-09T09:08:48.608Z,7.10
2017-12-09T09:11:16.440Z,5.77
2017-12-09T09:13:44.054Z,5.77
2017-12-09T09:16:11.580Z,5.30
2017-12-09T09:18:39.876Z,5.40
2017-12-09T09:21:07.685Z,6.30
2017-12-09T09:23:35.211Z,6.40
2017-12-09T09:26:02.740Z,5.90
2017-12-09T09:28:30.364Z,6.13
2017-12-09T09:30:57.906Z,5.50
2017-12-09T09:33:25.445Z,5.00
2017-12-09T09:35:53.001Z,5.50
2017-12-09T09:38:20.540Z,5.52
2017-12-09T09:40:48.097Z,6.20
2017-12-09T09:43:17.232Z,6.18
2017-12-09T09:45:45.593Z,6.22
2017-12-09T09:48:14.709Z,5.10
2017-12-09T09:57:42.319Z,5.77
2017-12-09T10:00:09.861Z,6.07
2017-12-09T10:02:37.399Z,6.05
2017-12-09T10:05:04.973Z,5.00
2017-12-09T10:07:32.499Z,5.50
2017-12-09T10:10:00.803Z,5.60
2017-12-09T10:12:28.664Z,5.65
2017-12-09T10:17:54.269Z,4.60
2017-12-09T10:20:22.580Z,4.90
2017-12-09T10:22:50.109Z,4.10
2017-12-09T10:25:17.679Z,5.10
2017-12-09T10:27:45.233Z,4.67
2017-12-09T10:30:13.683Z,4.50
2017-12-09T10:32:42.028Z,5.23
2017-12-09T10:35:09.551Z,5.00
2017-12-09T10:37:37.095Z,4.07
2017-12-09T10:40:04.699Z,4.83
2017-12-09T10:42:32.246Z,4.40
2017-12-09T10:44:59.780Z,4.10
2017-12-09T10:47:28.392Z,3.77
2017-12-09T10:49:55.927Z,3.60
2017-12-09T10:52:23.467Z,3.47
2017-12-09T10:54:51.800Z,3.90
2017-12-09T10:57:19.323Z,3.97
2017-12-09T10:59:46.851Z,3.90
2017-12-09T11:02:14.662Z,3.72
2017-12-09T11:13:17.647Z,3.78
2017-12-09T11:15:46.049Z,2.83
2017-12-09T11:18:14.607Z,3.97
2017-12-09T11:20:43.009Z,3.20
2017-12-09T11:23:11.317Z,4.20
2017-12-09T11:25:39.786Z,3.40
2017-12-09T11:28:07.340Z,3.83
2017-12-09T11:30:34.901Z,3.20
2017-12-09T11:33:02.435Z,3.58
2017-12-09T11:35:29.984Z,3.30
2017-12-09T11:37:57.610Z,3.97
2017-12-09T11:40:25.174Z,4.72
2017-12-09T11:42:52.829Z,4.00
2017-12-09T11:45:21.360Z,4.53
2017-12-09T11:47:49.483Z,3.67
2017-12-09T11:50:17.680Z,3.33
2017-12-09T11:52:45.217Z,5.80
2017-12-09T11:55:16.923Z,4.33
2017-12-09T11:57:45.438Z,4.15
2017-12-09T12:00:13.883Z,4.10
2017-12-09T12:02:42.560Z,4.53
2017-12-09T12:05:10.278Z,4.07
2017-12-09T12:07:37.813Z,4.70
2017-12-09T12:10:05.339Z,4.57
2017-12-09T12:12:32.903Z,4.50
2017-12-09T12:15:01.216Z,6.03
2017-12-09T12:17:28.759Z,5.07
2017-12-09T12:19:56.332Z,5.17
2017-12-09T12:22:23.877Z,5.40
2017-12-09T12:24:51.572Z,5.40
2017-12-09T12:27:19.157Z,5.05
2017-12-09T12:29:46.692Z,4.00
2017-12-09T12:32:15.526Z,5.43
2017-12-09T12:34:43.125Z,4.40
2017-12-09T12:37:10.664Z,5.53
2017-12-09T12:39:38.890Z,4.60
2017-12-09T12:42:06.531Z,5.40
2017-12-09T12:44:34.063Z,4.10
2017-12-09T12:47:01.601Z,4.20
2017-12-09T12:49:29.516Z,3.33
2017-12-09T12:51:57.056Z,4.57
2017-12-09T12:54:24.592Z,3.20
2017-12-09T12:56:52.157Z,3.80
2017-12-09T12:59:20.021Z,4.37
2017-12-09T13:01:49.180Z,3.73
2017-12-09T13:04:16.771Z,3.00
2017-12-09T13:06:44.309Z,3.70
2017-12-09T13:09:12.611Z,3.90
2017-12-09T13:11:40.208Z,3.80
2017-12-09T13:14:07.760Z,3.60
2017-12-09T13:16:35.291Z,4.70
2017-12-09T13:19:02.975Z,4.37
2017-12-09T13:21:30.515Z,5.07
2017-12-09T13:23:58.051Z,4.53
2017-12-09T13:26:25.640Z,4.43
2017-12-09T13:28:53.171Z,5.20
2017-12-09T13:31:20.711Z,4.73
2017-12-09T13:33:48.300Z,4.67
2017-12-09T13:36:16.411Z,4.37
2017-12-09T13:38:43.952Z,4.00
2017-12-09T13:41:11.504Z,5.03
2017-12-09T13:43:39.805Z,4.20
2017-12-09T13:46:07.341Z,4.30
2017-12-09T13:48:34.907Z,3.90
2017-12-09T13:51:02.954Z,4.50
2017-12-09T13:53:30.501Z,5.28
2017-12-09T13:55:58.856Z,4.90
2017-12-09T13:58:26.574Z,5.80
2017-12-09T14:00:54.104Z,4.67
2017-12-09T14:03:21.685Z,5.50
2017-12-09T14:05:49.219Z,5.47
2017-12-09T14:08:17.520Z,4.53
2017-12-09T14:10:45.101Z,5.73
2017-12-09T14:13:13.624Z,5.70
2017-12-09T14:15:41.924Z,5.60
2017-12-09T14:18:09.525Z,5.53
2017-12-09T14:20:37.070Z,8.20
2017-12-09T14:23:04.607Z,8.00
2017-12-09T14:25:32.184Z,8.40
2017-12-09T14:27:59.855Z,7.30
2017-12-09T14:30:27.383Z,8.07
2017-12-09T14:32:54.954Z,7.67
2017-12-09T14:35:22.483Z,6.10
2017-12-09T14:37:50.018Z,6.20
2017-12-09T14:40:17.608Z,4.75
2017-12-09T14:42:45.156Z,6.07
2017-12-09T14:45:14.582Z,5.13
2017-12-09T14:47:42.143Z,5.73
2017-12-09T14:50:09.679Z,4.30
2017-12-09T14:52:37.409Z,4.57
2017-12-09T14:55:04.971Z,4.60
2017-12-09T14:57:32.518Z,5.28
2017-12-09T15:00:00.063Z,4.50
2017-12-09T15:02:27.690Z,5.32
2017-12-09T15:04:55.223Z,4.37
2017-12-09T15:07:22.763Z,4.67
2017-12-09T15:09:50.319Z,5.33
2017-12-09T15:12:17.858Z,4.70
2017-12-09T15:14:45.547Z,4.40
2017-12-09T15:17:15.567Z,4.95
2017-12-09T15:19:43.124Z,4.90
2017-12-09T15:22:10.684Z,4.60
2017-12-09T15:24:39.780Z,4.50
2017-12-09T15:27:07.319Z,5.03
2017-12-09T15:29:34.860Z,3.80
2017-12-09T15:32:02.441Z,4.10
2017-12-09T15:34:29.976Z,4.10
2017-12-09T15:36:57.509Z,4.13
2017-12-09T15:39:25.933Z,5.10
2017-12-09T15:41:53.465Z,4.15
2017-12-09T15:44:21.003Z,4.93
2017-12-09T15:46:49.356Z,5.30
2017-12-09T15:49:17.889Z,4.90
2017-12-09T15:51:45.428Z,4.77
2017-12-09T15:54:15.890Z,5.30
2017-12-09T15:56:43.425Z,4.50
2017-12-09T15:59:10.980Z,5.20
2017-12-09T16:01:39.316Z,6.85
2017-12-09T16:04:06.855Z,5.60
2017-12-09T16:06:34.392Z,6.18
2017-12-09T16:09:02.065Z,5.00
2017-12-09T16:11:29.624Z,6.18
2017-12-09T16:13:57.156Z,4.67
2017-12-09T16:16:24.729Z,5.28
2017-12-09T16:18:52.277Z,5.73
2017-12-09T16:21:19.808Z,7.55
2017-12-09T16:23:48.884Z,6.43
2017-12-09T16:26:17.192Z,6.60
2017-12-09T16:28:44.733Z,6.00
2017-12-09T16:31:12.324Z,5.97
2017-12-09T16:33:40.697Z,6.57
2017-12-09T16:36:08.385Z,5.60
2017-12-09T16:38:35.948Z,5.50
2017-12-09T16:41:03.511Z,4.97
2017-12-09T16:43:31.076Z,6.10
2017-12-09T16:45:59.115Z,6.00
2017-12-09T16:48:26.690Z,7.33
2017-12-09T16:50:54.333Z,6.30
2017-12-09T16:53:22.008Z,6.37
2017-12-09T16:55:49.825Z,8.60
2017-12-09T16:58:17.370Z,7.60
2017-12-09T17:00:46.107Z,9.07
2017-12-09T17:03:14.622Z,11.00
2017-12-09T17:05:42.185Z,11.83
2017-12-09T17:08:09.753Z,8.83
2017-12-09T17:10:38.885Z,9.83
2017-12-09T17:13:06.456Z,9.82
2017-12-09T17:15:34.047Z,11.67
2017-12-09T17:18:01.739Z,9.50
2017-12-09T17:20:30.264Z,8.00
2017-12-09T17:22:58.254Z,7.63
2017-12-09T17:25:25.924Z,6.50
2017-12-09T17:27:53.526Z,5.53
2017-12-09T17:30:21.154Z,6.60
2017-12-09T17:32:49.520Z,4.73
2017-12-09T17:35:17.049Z,6.87
2017-12-09T17:37:44.664Z,6.13
2017-12-09T17:40:14.004Z,5.47
2017-12-09T17:42:41.539Z,7.83
2017-12-09T17:45:09.425Z,7.80
2017-12-09T17:47:36.973Z,5.20
2017-12-09T17:50:04.553Z,5.60
2017-12-09T17:52:32.314Z,7.70
2017-12-09T17:54:59.878Z,5.90
2017-12-09T17:57:27.951Z,7.30
2017-12-09T17:59:55.721Z,7.20
2017-12-09T18:02:23.275Z,7.33
2017-12-09T18:04:50.811Z,5.90
2017-12-09T18:07:18.377Z,6.70
2017-12-09T18:09:45.942Z,7.57
2017-12-09T18:12:13.645Z,8.52
2017-12-09T18:21:11.241Z,5.43
2017-12-09T18:23:38.821Z,5.83
2017-12-09T18:26:06.596Z,5.80
2017-12-09T18:28:34.920Z,8.30
2017-12-09T18:31:02.471Z,5.50
2017-12-09T18:33:30.870Z,5.77
2017-12-09T18:35:58.464Z,6.00
2017-12-09T18:38:26.763Z,7.93
2017-12-09T18:40:54.354Z,5.67
2017-12-09T18:43:22.385Z,8.20
2017-12-09T18:45:49.970Z,6.63
2017-12-09T18:48:17.508Z,6.18
2017-12-09T18:50:45.096Z,7.80
2017-12-09T18:53:13.657Z,7.00
2017-12-09T18:55:42.004Z,8.20
2017-12-09T18:58:10.533Z,6.43
2017-12-09T19:00:38.132Z,6.30
2017-12-09T19:03:05.671Z,6.20
2017-12-09T19:05:33.386Z,6.15
2017-12-09T19:08:01.228Z,6.20
2017-12-09T19:10:28.768Z,8.00
2017-12-09T19:12:56.492Z,7.20
2017-12-09T19:15:24.312Z,5.60
2017-12-09T19:17:51.840Z,6.43
2017-12-09T19:20:19.464Z,5.80
2017-12-09T19:22:47.016Z,5.57
2017-12-09T19:25:17.276Z,6.15
2017-12-09T19:27:46.329Z,6.40
2017-12-09T19:30:16.381Z,5.75
2017-12-09T19:32:43.920Z,5.43
2017-12-09T19:35:11.505Z,5.25
2017-12-09T19:37:39.093Z,5.63
2017-12-09T19:40:06.627Z,4.60
2017-12-09T19:42:34.207Z,5.70
2017-12-09T19:45:02.617Z,4.53
2017-12-09T19:47:30.188Z,5.20
2017-12-09T19:49:57.988Z,6.67
2017-12-09T19:52:25.559Z,6.07
2017-12-09T19:54:53.096Z,6.07
2017-12-09T19:57:20.932Z,4.30
2017-12-09T19:59:48.823Z,5.43
2017-12-09T20:02:16.400Z,5.40
2017-12-09T20:04:44.732Z,5.20
2017-12-09T20:07:12.776Z,5.53
2017-12-09T20:09:40.383Z,5.20
2017-12-09T20:12:07.963Z,5.27
2017-12-09T20:14:35.509Z,5.30
2017-12-09T20:17:03.067Z,4.67
2017-12-09T20:19:30.623Z,5.17
2017-12-09T20:21:58.162Z,4.60
2017-12-09T20:24:25.702Z,6.10
2017-12-09T20:26:54.041Z,4.60
2017-12-09T20:29:21.568Z,5.03
2017-12-09T20:31:49.108Z,5.00
2017-12-09T20:34:16.693Z,5.00
2017-12-09T20:36:44.227Z,5.60
2017-12-09T20:39:11.869Z,5.43
2017-12-09T20:41:40.200Z,5.07
2017-12-09T20:44:07.731Z,4.93
2017-12-09T20:46:35.643Z,6.50
2017-12-09T20:49:03.201Z,4.10
2017-12-09T20:51:30.752Z,5.10
2017-12-09T20:53:58.419Z,5.10
2017-12-09T20:56:26.020Z,5.43
2017-12-09T20:58:54.325Z,4.83
2017-12-09T21:01:22.389Z,4.55
2017-12-09T21:03:49.944Z,4.90
2017-12-09T21:06:17.820Z,4.20
2017-12-09T21:08:45.364Z,4.40
2017-12-09T21:11:15.528Z,4.15
2017-12-09T21:13:43.088Z,5.13
2017-12-09T21:16:10.633Z,4.30
2017-12-09T21:18:38.439Z,4.40
2017-12-09T21:21:06.759Z,6.47
2017-12-09T21:23:34.317Z,3.93
2017-12-09T21:26:03.143Z,4.30
2017-12-09T21:28:30.676Z,3.77
2017-12-09T21:30:58.208Z,4.30
2017-12-09T21:33:25.803Z,4.23
2017-12-09T21:35:53.349Z,4.80
2017-12-09T21:38:20.883Z,5.13
2017-12-09T21:40:48.523Z,4.30
2017-12-09T21:43:17.639Z,4.64
2017-12-09T21:45:45.214Z,4.80
2017-12-09T21:48:13.712Z,4.30
2017-12-09T21:50:41.304Z,17.17
2017-12-09T21:53:08.845Z,4.10
2017-12-09T21:55:36.502Z,6.07
2017-12-09T21:58:04.093Z,4.40
2017-12-09T22:00:31.629Z,5.93
2017-12-09T22:02:59.482Z,4.53
2017-12-09T22:05:27.024Z,5.43
2017-12-09T22:07:54.596Z,4.40
2017-12-09T22:10:23.721Z,4.57
2017-12-09T22:12:51.252Z,4.30
2017-12-09T22:15:18.807Z,4.03
2017-12-09T22:17:46.389Z,4.00
2017-12-09T22:20:15.567Z,3.65
2017-12-09T22:22:43.096Z,3.83
2017-12-09T22:25:10.676Z,4.00
2017-12-09T22:27:38.200Z,4.40
2017-12-09T22:30:05.732Z,5.50
2017-12-09T22:32:34.060Z,4.55
2017-12-09T22:35:01.640Z,5.23
2017-12-09T22:37:29.799Z,3.62
2017-12-09T22:39:57.361Z,6.43
2017-12-09T22:42:24.888Z,5.50
2017-12-09T22:44:52.419Z,5.28
2017-12-09T22:47:20.012Z,5.72
2017-12-09T22:49:47.716Z,5.05
2017-12-09T22:52:16.493Z,5.95
2017-12-09T22:54:44.093Z,4.53
2017-12-09T22:57:12.428Z,4.00
2017-12-09T22:59:40.047Z,4.40
2017-12-09T23:02:07.620Z,4.30
2017-12-09T23:04:35.595Z,4.50
2017-12-09T23:07:03.247Z,4.70
2017-12-09T23:09:30.855Z,4.47
2017-12-09T23:11:59.900Z,4.57
2017-12-09T23:14:27.745Z,3.87
2017-12-09T23:16:56.065Z,4.23
2017-12-09T23:19:23.605Z,4.45
2017-12-09T23:21:51.477Z,4.17
2017-12-09T23:24:19.040Z,4.67
2017-12-09T23:26:46.586Z,4.93
2017-12-09T23:29:16.619Z,3.72
2017-12-09T23:31:44.194Z,4.33
2017-12-09T23:34:11.744Z,3.50
2017-12-09T23:36:39.319Z,4.47
2017-12-09T23:39:07.051Z,3.97
2017-12-09T23:41:34.579Z,4.60
2017-12-09T23:44:02.873Z,4.17
2017-12-09T23:46:30.482Z,4.32
2017-12-09T23:48:58.047Z,4.00
2017-12-09T23:51:26.343Z,4.70
2017-12-09T23:53:54.685Z,4.30
2017-12-09T23:56:22.221Z,4.85
2017-12-09T23:58:49.775Z,4.10
